Ana Sayfa
METAR-TAF:

METAR-TAF

Havaalanları :

Blackstone, Virginia, Amerika Birleşik Devletleri

Enlem: 37-04-26N, Boylam: 077-57-09W, yükseklik: 134 m

Güncel hava durumu gözlemi

Rapor saat 02:15 UTC de 13 dakika önce yapıldı.
Sakin rüzgar
Sıcaklık 25°C
Nem 100%
Basınç 1015 hPa
Görüş mesafesi: 16.1 km
7000 ft yükseklikte parçalı bulutlu

METAR: KBKT 180215Z AUTO 00000KT 10SM SCT070 25/25 A2996 RMK AO1 T02490249

Saat: 22:28 (02:28 UTC)


TAF: eksik

4.000'den fazla havaalanı için hava durumu gözlemleri ve tahminleri (METAR ve TAF raporları).

Kullanılabilir istasyonlar harita üzerinde sarı ve kırmızı noktalarla gösterilir.

İstasyonun adını görmek için fareyi noktanın üzerinde gezdirin.

Sonrasında hava gözlem ve tahminlerini görmek için tıklayın.

Haritayı değiştirmek için: yaklaştırmak için siyah artı işaretli yeşil düğmeye ve uzaklaştırmak için de eksi işaretli düğmeye hızla tıklayın; bitişik haritalar için yeşil okları kullanın.


METAR-TAF: